sensor_id;sensor_type;location;lat;lon;timestamp;temperature;humidity
26326;DHT22;14032;52.510;7.342;2024-02-26T00:01:39;3.70;99.90
26326;DHT22;14032;52.510;7.342;2024-02-26T00:04:05;3.70;99.90
26326;DHT22;14032;52.510;7.342;2024-02-26T00:06:31;3.70;99.90
26326;DHT22;14032;52.510;7.342;2024-02-26T00:08:57;3.60;99.90
26326;DHT22;14032;52.510;7.342;2024-02-26T00:11:22;3.70;99.90
26326;DHT22;14032;52.510;7.342;2024-02-26T00:13:48;3.70;99.90
26326;DHT22;14032;52.510;7.342;2024-02-26T00:16:14;3.70;99.90
26326;DHT22;14032;52.510;7.342;2024-02-26T00:18:39;3.70;99.90
26326;DHT22;14032;52.510;7.342;2024-02-26T00:21:05;3.60;99.90
26326;DHT22;14032;52.510;7.342;2024-02-26T00:23:32;3.70;99.90
26326;DHT22;14032;52.510;7.342;2024-02-26T00:25:58;3.60;99.90
26326;DHT22;14032;52.510;7.342;2024-02-26T00:28:24;3.60;99.90
26326;DHT22;14032;52.510;7.342;2024-02-26T00:30:50;3.60;99.90
26326;DHT22;14032;52.510;7.342;2024-02-26T00:33:21;3.50;99.90
26326;DHT22;14032;52.510;7.342;2024-02-26T00:35:47;3.50;99.90
26326;DHT22;14032;52.510;7.342;2024-02-26T00:38:13;3.60;99.90
26326;DHT22;14032;52.510;7.342;2024-02-26T00:40:38;3.60;99.90
26326;DHT22;14032;52.510;7.342;2024-02-26T00:43:04;3.50;99.90
26326;DHT22;14032;52.510;7.342;2024-02-26T00:45:30;3.50;99.90
26326;DHT22;14032;52.510;7.342;2024-02-26T00:47:58;3.50;99.90
26326;DHT22;14032;52.510;7.342;2024-02-26T00:50:23;3.50;99.90
26326;DHT22;14032;52.510;7.342;2024-02-26T00:52:49;3.50;99.90
26326;DHT22;14032;52.510;7.342;2024-02-26T00:55:14;3.40;99.90
26326;DHT22;14032;52.510;7.342;2024-02-26T00:57:40;3.50;99.90
26326;DHT22;14032;52.510;7.342;2024-02-26T01:00:06;3.40;99.90
26326;DHT22;14032;52.510;7.342;2024-02-26T01:02:34;3.40;99.90
26326;DHT22;14032;52.510;7.342;2024-02-26T01:05:00;3.40;99.90
26326;DHT22;14032;52.510;7.342;2024-02-26T01:07:25;3.40;99.90
26326;DHT22;14032;52.510;7.342;2024-02-26T01:09:51;3.40;99.90
26326;DHT22;14032;52.510;7.342;2024-02-26T01:12:17;3.40;99.90
26326;DHT22;14032;52.510;7.342;2024-02-26T01:14:42;3.40;99.90
26326;DHT22;14032;52.510;7.342;2024-02-26T01:17:08;3.40;99.90
26326;DHT22;14032;52.510;7.342;2024-02-26T01:19:34;3.40;99.90
26326;DHT22;14032;52.510;7.342;2024-02-26T01:21:59;3.30;99.90
26326;DHT22;14032;52.510;7.342;2024-02-26T01:24:25;3.40;99.90
26326;DHT22;14032;52.510;7.342;2024-02-26T01:26:50;3.30;99.90
26326;DHT22;14032;52.510;7.342;2024-02-26T01:29:17;3.40;99.90
26326;DHT22;14032;52.510;7.342;2024-02-26T01:31:43;3.30;99.90
26326;DHT22;14032;52.510;7.342;2024-02-26T01:34:08;3.30;99.90
26326;DHT22;14032;52.510;7.342;2024-02-26T01:36:34;3.40;99.90
26326;DHT22;14032;52.510;7.342;2024-02-26T01:38:59;3.40;99.90
26326;DHT22;14032;52.510;7.342;2024-02-26T01:41:25;3.30;99.90
26326;DHT22;14032;52.510;7.342;2024-02-26T01:43:51;3.30;99.90
26326;DHT22;14032;52.510;7.342;2024-02-26T01:46:17;3.30;99.90
26326;DHT22;14032;52.510;7.342;2024-02-26T01:48:44;3.30;99.90
26326;DHT22;14032;52.510;7.342;2024-02-26T01:51:12;3.30;99.90
26326;DHT22;14032;52.510;7.342;2024-02-26T01:53:40;3.20;99.90
26326;DHT22;14032;52.510;7.342;2024-02-26T01:56:06;3.30;99.90
26326;DHT22;14032;52.510;7.342;2024-02-26T01:58:34;3.20;99.90
26326;DHT22;14032;52.510;7.342;2024-02-26T02:01:01;3.20;99.90
26326;DHT22;14032;52.510;7.342;2024-02-26T02:03:28;3.20;99.90
26326;DHT22;14032;52.510;7.342;2024-02-26T02:05:56;3.20;99.90
26326;DHT22;14032;52.510;7.342;2024-02-26T02:08:22;3.10;99.90
26326;DHT22;14032;52.510;7.342;2024-02-26T02:10:49;3.10;99.90
26326;DHT22;14032;52.510;7.342;2024-02-26T02:13:15;3.10;99.90
26326;DHT22;14032;52.510;7.342;2024-02-26T02:15:40;3.10;99.90
26326;DHT22;14032;52.510;7.342;2024-02-26T02:18:06;3.10;99.90
26326;DHT22;14032;52.510;7.342;2024-02-26T02:20:35;3.10;99.90
26326;DHT22;14032;52.510;7.342;2024-02-26T02:23:02;3.10;99.90
26326;DHT22;14032;52.510;7.342;2024-02-26T02:25:28;3.00;99.90
26326;DHT22;14032;52.510;7.342;2024-02-26T02:27:54;3.00;99.90
26326;DHT22;14032;52.510;7.342;2024-02-26T02:30:21;3.00;99.90
26326;DHT22;14032;52.510;7.342;2024-02-26T02:32:49;3.00;99.90
26326;DHT22;14032;52.510;7.342;2024-02-26T02:35:15;3.00;99.90
26326;DHT22;14032;52.510;7.342;2024-02-26T02:37:41;3.10;99.90
26326;DHT22;14032;52.510;7.342;2024-02-26T02:40:07;3.10;99.90
26326;DHT22;14032;52.510;7.342;2024-02-26T02:42:33;3.10;99.90
26326;DHT22;14032;52.510;7.342;2024-02-26T02:44:59;3.10;99.90
26326;DHT22;14032;52.510;7.342;2024-02-26T02:47:24;3.10;99.90
26326;DHT22;14032;52.510;7.342;2024-02-26T02:49:50;3.10;99.90
26326;DHT22;14032;52.510;7.342;2024-02-26T02:52:16;3.20;99.90
26326;DHT22;14032;52.510;7.342;2024-02-26T02:54:43;3.20;99.90
26326;DHT22;14032;52.510;7.342;2024-02-26T02:57:09;3.10;99.90
26326;DHT22;14032;52.510;7.342;2024-02-26T02:59:36;3.20;99.90
26326;DHT22;14032;52.510;7.342;2024-02-26T03:02:01;3.20;99.90
26326;DHT22;14032;52.510;7.342;2024-02-26T03:04:27;3.20;99.90
26326;DHT22;14032;52.510;7.342;2024-02-26T03:06:52;3.10;99.90
26326;DHT22;14032;52.510;7.342;2024-02-26T03:09:18;3.20;99.90
26326;DHT22;14032;52.510;7.342;2024-02-26T03:11:44;3.20;99.90
26326;DHT22;14032;52.510;7.342;2024-02-26T03:14:09;3.20;99.90
26326;DHT22;14032;52.510;7.342;2024-02-26T03:16:35;3.20;99.90
26326;DHT22;14032;52.510;7.342;2024-02-26T03:19:01;3.20;99.90
26326;DHT22;14032;52.510;7.342;2024-02-26T03:21:27;3.20;99.90
26326;DHT22;14032;52.510;7.342;2024-02-26T03:23:53;3.20;99.90
26326;DHT22;14032;52.510;7.342;2024-02-26T03:26:18;3.20;99.90
26326;DHT22;14032;52.510;7.342;2024-02-26T03:28:44;3.20;99.90
26326;DHT22;14032;52.510;7.342;2024-02-26T03:31:10;3.20;99.90
26326;DHT22;14032;52.510;7.342;2024-02-26T03:33:38;3.20;99.90
26326;DHT22;14032;52.510;7.342;2024-02-26T03:36:04;3.20;99.90
26326;DHT22;14032;52.510;7.342;2024-02-26T03:38:30;3.30;99.90
26326;DHT22;14032;52.510;7.342;2024-02-26T03:40:56;3.30;99.90
26326;DHT22;14032;52.510;7.342;2024-02-26T03:43:21;3.30;99.90
26326;DHT22;14032;52.510;7.342;2024-02-26T03:45:47;3.30;99.90
26326;DHT22;14032;52.510;7.342;2024-02-26T03:48:13;3.30;99.90
26326;DHT22;14032;52.510;7.342;2024-02-26T03:50:38;3.30;99.90
26326;DHT22;14032;52.510;7.342;2024-02-26T03:53:04;3.30;99.90
26326;DHT22;14032;52.510;7.342;2024-02-26T03:55:30;3.40;99.90
26326;DHT22;14032;52.510;7.342;2024-02-26T03:57:56;3.30;99.90
26326;DHT22;14032;52.510;7.342;2024-02-26T04:00:22;3.40;99.90
26326;DHT22;14032;52.510;7.342;2024-02-26T04:02:47;3.40;99.90
26326;DHT22;14032;52.510;7.342;2024-02-26T04:05:13;3.40;99.90
26326;DHT22;14032;52.510;7.342;2024-02-26T04:07:40;3.40;99.90
26326;DHT22;14032;52.510;7.342;2024-02-26T04:10:12;3.40;99.90
26326;DHT22;14032;52.510;7.342;2024-02-26T04:12:41;3.40;99.90
26326;DHT22;14032;52.510;7.342;2024-02-26T04:15:08;3.40;99.90
26326;DHT22;14032;52.510;7.342;2024-02-26T04:17:34;3.40;99.90
26326;DHT22;14032;52.510;7.342;2024-02-26T04:20:00;3.40;99.90
26326;DHT22;14032;52.510;7.342;2024-02-26T04:22:26;3.50;99.90
26326;DHT22;14032;52.510;7.342;2024-02-26T04:24:51;3.50;99.90
26326;DHT22;14032;52.510;7.342;2024-02-26T04:27:17;3.50;99.90
26326;DHT22;14032;52.510;7.342;2024-02-26T04:29:43;3.50;99.90
26326;DHT22;14032;52.510;7.342;2024-02-26T04:32:08;3.50;99.90
26326;DHT22;14032;52.510;7.342;2024-02-26T04:34:34;3.50;99.90
26326;DHT22;14032;52.510;7.342;2024-02-26T04:36:59;3.50;99.90
26326;DHT22;14032;52.510;7.342;2024-02-26T04:39:25;3.50;99.90
26326;DHT22;14032;52.510;7.342;2024-02-26T04:41:51;3.50;99.90
26326;DHT22;14032;52.510;7.342;2024-02-26T04:44:17;3.60;99.90
26326;DHT22;14032;52.510;7.342;2024-02-26T04:46:42;3.60;99.90
26326;DHT22;14032;52.510;7.342;2024-02-26T04:49:09;3.60;99.90
26326;DHT22;14032;52.510;7.342;2024-02-26T04:51:35;3.60;99.90
26326;DHT22;14032;52.510;7.342;2024-02-26T04:54:00;3.60;99.90
26326;DHT22;14032;52.510;7.342;2024-02-26T04:56:26;3.60;99.90
26326;DHT22;14032;52.510;7.342;2024-02-26T04:58:52;3.60;99.90
26326;DHT22;14032;52.510;7.342;2024-02-26T05:01:18;3.60;99.90
26326;DHT22;14032;52.510;7.342;2024-02-26T05:03:44;3.70;99.90
26326;DHT22;14032;52.510;7.342;2024-02-26T05:06:10;3.60;99.90
26326;DHT22;14032;52.510;7.342;2024-02-26T05:08:35;3.70;99.90
26326;DHT22;14032;52.510;7.342;2024-02-26T05:11:02;3.70;99.90
26326;DHT22;14032;52.510;7.342;2024-02-26T05:13:28;3.70;99.90
26326;DHT22;14032;52.510;7.342;2024-02-26T05:15:54;3.70;99.90
26326;DHT22;14032;52.510;7.342;2024-02-26T05:18:20;3.70;99.90
26326;DHT22;14032;52.510;7.342;2024-02-26T05:20:45;3.70;99.90
26326;DHT22;14032;52.510;7.342;2024-02-26T05:23:11;3.70;99.90
26326;DHT22;14032;52.510;7.342;2024-02-26T05:25:37;3.70;99.90
26326;DHT22;14032;52.510;7.342;2024-02-26T05:28:03;3.70;99.90
26326;DHT22;14032;52.510;7.342;2024-02-26T05:30:28;3.80;99.90
26326;DHT22;14032;52.510;7.342;2024-02-26T05:32:54;3.80;99.90
26326;DHT22;14032;52.510;7.342;2024-02-26T05:35:20;3.80;99.90
26326;DHT22;14032;52.510;7.342;2024-02-26T05:37:45;3.80;99.90
26326;DHT22;14032;52.510;7.342;2024-02-26T05:40:12;3.80;99.90
26326;DHT22;14032;52.510;7.342;2024-02-26T05:42:39;3.80;99.90
26326;DHT22;14032;52.510;7.342;2024-02-26T05:45:05;3.80;99.90
26326;DHT22;14032;52.510;7.342;2024-02-26T05:47:34;3.80;99.90
26326;DHT22;14032;52.510;7.342;2024-02-26T05:50:01;3.80;99.90
26326;DHT22;14032;52.510;7.342;2024-02-26T05:52:27;3.80;99.90
26326;DHT22;14032;52.510;7.342;2024-02-26T05:54:53;3.80;99.90
26326;DHT22;14032;52.510;7.342;2024-02-26T05:57:19;3.80;99.90
26326;DHT22;14032;52.510;7.342;2024-02-26T05:59:45;3.90;99.90
26326;DHT22;14032;52.510;7.342;2024-02-26T06:02:10;3.90;99.90
26326;DHT22;14032;52.510;7.342;2024-02-26T06:04:36;3.80;99.90
26326;DHT22;14032;52.510;7.342;2024-02-26T06:07:03;3.90;99.90
26326;DHT22;14032;52.510;7.342;2024-02-26T06:09:29;3.90;99.90
26326;DHT22;14032;52.510;7.342;2024-02-26T06:11:54;3.90;99.90
26326;DHT22;14032;52.510;7.342;2024-02-26T06:14:20;4.00;99.90
26326;DHT22;14032;52.510;7.342;2024-02-26T06:16:47;4.00;99.90
26326;DHT22;14032;52.510;7.342;2024-02-26T06:19:13;4.00;99.90
26326;DHT22;14032;52.510;7.342;2024-02-26T06:21:39;4.00;99.90
26326;DHT22;14032;52.510;7.342;2024-02-26T06:24:04;4.00;99.90
26326;DHT22;14032;52.510;7.342;2024-02-26T06:26:30;4.10;99.90
26326;DHT22;14032;52.510;7.342;2024-02-26T06:28:56;4.10;99.90
26326;DHT22;14032;52.510;7.342;2024-02-26T06:31:22;4.10;99.90
26326;DHT22;14032;52.510;7.342;2024-02-26T06:33:48;4.10;99.90
26326;DHT22;14032;52.510;7.342;2024-02-26T06:36:15;4.10;99.90
26326;DHT22;14032;52.510;7.342;2024-02-26T06:38:41;4.10;99.90
26326;DHT22;14032;52.510;7.342;2024-02-26T06:41:06;4.10;99.90
26326;DHT22;14032;52.510;7.342;2024-02-26T06:43:32;4.10;99.90
26326;DHT22;14032;52.510;7.342;2024-02-26T06:45:58;4.10;99.90
26326;DHT22;14032;52.510;7.342;2024-02-26T06:48:25;4.10;99.90
26326;DHT22;14032;52.510;7.342;2024-02-26T06:50:52;4.10;99.90
26326;DHT22;14032;52.510;7.342;2024-02-26T06:53:23;4.10;99.90
26326;DHT22;14032;52.510;7.342;2024-02-26T06:55:49;4.20;99.90
26326;DHT22;14032;52.510;7.342;2024-02-26T06:58:15;4.10;99.90
26326;DHT22;14032;52.510;7.342;2024-02-26T07:00:47;4.10;99.90
26326;DHT22;14032;52.510;7.342;2024-02-26T07:03:25;4.10;99.90
26326;DHT22;14032;52.510;7.342;2024-02-26T07:05:51;4.10;99.90
26326;DHT22;14032;52.510;7.342;2024-02-26T07:08:17;4.10;99.90
26326;DHT22;14032;52.510;7.342;2024-02-26T07:10:43;4.20;99.90
26326;DHT22;14032;52.510;7.342;2024-02-26T07:13:09;4.10;99.90
26326;DHT22;14032;52.510;7.342;2024-02-26T07:15:35;4.10;99.90
26326;DHT22;14032;52.510;7.342;2024-02-26T07:18:00;4.10;99.90
26326;DHT22;14032;52.510;7.342;2024-02-26T07:20:29;4.10;99.90
26326;DHT22;14032;52.510;7.342;2024-02-26T07:22:56;4.10;99.90
26326;DHT22;14032;52.510;7.342;2024-02-26T07:25:21;4.10;99.90
26326;DHT22;14032;52.510;7.342;2024-02-26T07:27:47;4.20;99.90
26326;DHT22;14032;52.510;7.342;2024-02-26T07:30:13;4.10;99.90
26326;DHT22;14032;52.510;7.342;2024-02-26T07:32:39;4.10;99.90
26326;DHT22;14032;52.510;7.342;2024-02-26T07:35:04;4.20;99.90
26326;DHT22;14032;52.510;7.342;2024-02-26T07:37:30;4.20;99.90
26326;DHT22;14032;52.510;7.342;2024-02-26T07:39:56;4.20;99.90
26326;DHT22;14032;52.510;7.342;2024-02-26T07:42:22;4.20;99.90
26326;DHT22;14032;52.510;7.342;2024-02-26T07:44:47;4.20;99.90
26326;DHT22;14032;52.510;7.342;2024-02-26T07:47:13;4.20;99.90
26326;DHT22;14032;52.510;7.342;2024-02-26T07:49:40;4.20;99.90
26326;DHT22;14032;52.510;7.342;2024-02-26T07:52:06;4.20;99.90
26326;DHT22;14032;52.510;7.342;2024-02-26T07:54:31;4.20;99.90
26326;DHT22;14032;52.510;7.342;2024-02-26T07:56:57;4.20;99.90
26326;DHT22;14032;52.510;7.342;2024-02-26T07:59:23;4.20;99.90
26326;DHT22;14032;52.510;7.342;2024-02-26T08:01:50;4.20;99.90
26326;DHT22;14032;52.510;7.342;2024-02-26T08:04:16;4.30;99.90
26326;DHT22;14032;52.510;7.342;2024-02-26T08:06:42;4.30;99.90
26326;DHT22;14032;52.510;7.342;2024-02-26T08:09:08;4.30;99.90
26326;DHT22;14032;52.510;7.342;2024-02-26T08:11:34;4.30;99.90
26326;DHT22;14032;52.510;7.342;2024-02-26T08:14:00;4.40;99.90
26326;DHT22;14032;52.510;7.342;2024-02-26T08:16:25;4.40;99.90
26326;DHT22;14032;52.510;7.342;2024-02-26T08:18:51;4.40;99.90
26326;DHT22;14032;52.510;7.342;2024-02-26T08:21:17;4.50;99.90
26326;DHT22;14032;52.510;7.342;2024-02-26T08:23:46;4.50;99.90
26326;DHT22;14032;52.510;7.342;2024-02-26T08:26:12;4.40;99.90
26326;DHT22;14032;52.510;7.342;2024-02-26T08:28:38;4.50;99.90
26326;DHT22;14032;52.510;7.342;2024-02-26T08:31:04;4.50;99.90
26326;DHT22;14032;52.510;7.342;2024-02-26T08:33:30;4.60;99.90
26326;DHT22;14032;52.510;7.342;2024-02-26T08:35:56;4.60;99.90
26326;DHT22;14032;52.510;7.342;2024-02-26T08:38:23;4.60;99.90
26326;DHT22;14032;52.510;7.342;2024-02-26T08:40:49;4.60;99.90
26326;DHT22;14032;52.510;7.342;2024-02-26T08:43:14;4.70;99.90
26326;DHT22;14032;52.510;7.342;2024-02-26T08:45:40;4.70;99.90
26326;DHT22;14032;52.510;7.342;2024-02-26T08:48:06;4.60;99.90
26326;DHT22;14032;52.510;7.342;2024-02-26T08:50:34;4.70;99.90
26326;DHT22;14032;52.510;7.342;2024-02-26T08:53:00;4.70;99.90
26326;DHT22;14032;52.510;7.342;2024-02-26T08:55:26;4.70;99.90
26326;DHT22;14032;52.510;7.342;2024-02-26T08:57:52;4.70;99.90
26326;DHT22;14032;52.510;7.342;2024-02-26T09:00:18;4.70;99.90
26326;DHT22;14032;52.510;7.342;2024-02-26T09:02:47;4.70;99.90
26326;DHT22;14032;52.510;7.342;2024-02-26T09:05:12;4.70;99.90
26326;DHT22;14032;52.510;7.342;2024-02-26T09:07:39;4.70;99.90
26326;DHT22;14032;52.510;7.342;2024-02-26T09:10:07;4.70;99.90
26326;DHT22;14032;52.510;7.342;2024-02-26T09:12:37;4.80;99.90
26326;DHT22;14032;52.510;7.342;2024-02-26T09:15:07;4.90;99.90
26326;DHT22;14032;52.510;7.342;2024-02-26T09:17:33;4.80;99.90
26326;DHT22;14032;52.510;7.342;2024-02-26T09:19:59;4.80;99.90
26326;DHT22;14032;52.510;7.342;2024-02-26T09:22:25;4.80;99.90
26326;DHT22;14032;52.510;7.342;2024-02-26T09:24:52;4.80;99.90
26326;DHT22;14032;52.510;7.342;2024-02-26T09:27:19;4.80;99.90
26326;DHT22;14032;52.510;7.342;2024-02-26T09:29:45;4.90;99.90
26326;DHT22;14032;52.510;7.342;2024-02-26T09:32:12;4.90;99.90
26326;DHT22;14032;52.510;7.342;2024-02-26T09:34:40;4.90;99.90
26326;DHT22;14032;52.510;7.342;2024-02-26T09:37:07;5.00;99.90
26326;DHT22;14032;52.510;7.342;2024-02-26T09:39:32;4.90;99.90
26326;DHT22;14032;52.510;7.342;2024-02-26T09:41:59;4.90;99.90
26326;DHT22;14032;52.510;7.342;2024-02-26T09:44:26;4.90;99.90
26326;DHT22;14032;52.510;7.342;2024-02-26T09:46:56;4.90;99.90
26326;DHT22;14032;52.510;7.342;2024-02-26T09:49:29;4.90;99.90
26326;DHT22;14032;52.510;7.342;2024-02-26T09:51:55;4.90;99.90
26326;DHT22;14032;52.510;7.342;2024-02-26T09:54:24;5.00;99.90
26326;DHT22;14032;52.510;7.342;2024-02-26T09:56:53;5.10;99.90
26326;DHT22;14032;52.510;7.342;2024-02-26T09:59:21;5.10;99.90
26326;DHT22;14032;52.510;7.342;2024-02-26T10:01:47;5.00;99.90
26326;DHT22;14032;52.510;7.342;2024-02-26T10:04:14;5.10;99.90
26326;DHT22;14032;52.510;7.342;2024-02-26T10:06:43;5.10;99.90
26326;DHT22;14032;52.510;7.342;2024-02-26T10:09:10;5.10;99.90
26326;DHT22;14032;52.510;7.342;2024-02-26T10:11:37;5.10;99.90
26326;DHT22;14032;52.510;7.342;2024-02-26T10:14:03;5.20;99.90
26326;DHT22;14032;52.510;7.342;2024-02-26T10:16:30;5.10;99.90
26326;DHT22;14032;52.510;7.342;2024-02-26T10:18:55;5.20;99.90
26326;DHT22;14032;52.510;7.342;2024-02-26T10:21:22;5.10;99.90
26326;DHT22;14032;52.510;7.342;2024-02-26T10:23:48;5.20;99.90
26326;DHT22;14032;52.510;7.342;2024-02-26T10:26:14;5.20;99.90
26326;DHT22;14032;52.510;7.342;2024-02-26T10:28:46;5.30;99.90
26326;DHT22;14032;52.510;7.342;2024-02-26T10:31:13;5.20;99.90
26326;DHT22;14032;52.510;7.342;2024-02-26T10:33:41;5.20;99.90
26326;DHT22;14032;52.510;7.342;2024-02-26T10:36:08;5.30;99.90
26326;DHT22;14032;52.510;7.342;2024-02-26T10:38:36;5.30;99.90
26326;DHT22;14032;52.510;7.342;2024-02-26T10:41:23;5.30;99.90
26326;DHT22;14032;52.510;7.342;2024-02-26T10:43:48;5.40;99.90
26326;DHT22;14032;52.510;7.342;2024-02-26T10:46:14;5.50;99.90
26326;DHT22;14032;52.510;7.342;2024-02-26T10:48:40;5.50;99.90
26326;DHT22;14032;52.510;7.342;2024-02-26T10:51:07;5.60;99.90
26326;DHT22;14032;52.510;7.342;2024-02-26T10:53:35;5.60;99.90
26326;DHT22;14032;52.510;7.342;2024-02-26T10:56:04;5.60;99.90
26326;DHT22;14032;52.510;7.342;2024-02-26T10:58:36;5.70;99.90
26326;DHT22;14032;52.510;7.342;2024-02-26T11:01:03;5.80;99.90
26326;DHT22;14032;52.510;7.342;2024-02-26T11:03:30;5.80;99.90
26326;DHT22;14032;52.510;7.342;2024-02-26T11:05:58;5.90;99.90
26326;DHT22;14032;52.510;7.342;2024-02-26T11:08:26;5.90;99.90
26326;DHT22;14032;52.510;7.342;2024-02-26T11:10:54;5.90;99.90
26326;DHT22;14032;52.510;7.342;2024-02-26T11:13:21;6.00;99.90
26326;DHT22;14032;52.510;7.342;2024-02-26T11:15:49;5.90;99.90
26326;DHT22;14032;52.510;7.342;2024-02-26T11:18:15;6.00;99.90
26326;DHT22;14032;52.510;7.342;2024-02-26T11:20:44;6.00;99.90
26326;DHT22;14032;52.510;7.342;2024-02-26T11:23:11;6.10;99.90
26326;DHT22;14032;52.510;7.342;2024-02-26T11:25:40;6.00;99.90
26326;DHT22;14032;52.510;7.342;2024-02-26T11:28:10;6.00;99.90
26326;DHT22;14032;52.510;7.342;2024-02-26T11:30:42;6.00;99.90
26326;DHT22;14032;52.510;7.342;2024-02-26T11:33:09;6.00;99.90
26326;DHT22;14032;52.510;7.342;2024-02-26T11:35:36;6.10;99.90
26326;DHT22;14032;52.510;7.342;2024-02-26T11:38:03;6.10;99.90
26326;DHT22;14032;52.510;7.342;2024-02-26T11:40:29;6.20;99.90
26326;DHT22;14032;52.510;7.342;2024-02-26T11:42:56;6.10;99.90
26326;DHT22;14032;52.510;7.342;2024-02-26T11:48:29;6.20;99.90
26326;DHT22;14032;52.510;7.342;2024-02-26T11:50:55;6.30;99.90
26326;DHT22;14032;52.510;7.342;2024-02-26T11:53:30;6.30;99.90
26326;DHT22;14032;52.510;7.342;2024-02-26T11:59:10;6.30;99.90
26326;DHT22;14032;52.510;7.342;2024-02-26T12:01:44;6.20;99.90
26326;DHT22;14032;52.510;7.342;2024-02-26T12:04:26;6.20;99.90
26326;DHT22;14032;52.510;7.342;2024-02-26T12:06:57;6.20;99.90
26326;DHT22;14032;52.510;7.342;2024-02-26T12:09:40;6.20;99.90
26326;DHT22;14032;52.510;7.342;2024-02-26T12:12:08;6.30;99.90
26326;DHT22;14032;52.510;7.342;2024-02-26T12:15:08;6.30;99.90
26326;DHT22;14032;52.510;7.342;2024-02-26T12:17:26;6.30;99.90
26326;DHT22;14032;52.510;7.342;2024-02-26T12:19:53;6.30;99.90
26326;DHT22;14032;52.510;7.342;2024-02-26T12:22:19;6.30;99.90
26326;DHT22;14032;52.510;7.342;2024-02-26T12:24:45;6.30;99.90
26326;DHT22;14032;52.510;7.342;2024-02-26T12:27:11;6.30;99.90
26326;DHT22;14032;52.510;7.342;2024-02-26T12:29:39;6.30;99.90
26326;DHT22;14032;52.510;7.342;2024-02-26T12:32:05;6.30;99.90
26326;DHT22;14032;52.510;7.342;2024-02-26T12:34:31;6.30;99.90
26326;DHT22;14032;52.510;7.342;2024-02-26T12:36:58;6.40;99.90
26326;DHT22;14032;52.510;7.342;2024-02-26T12:39:23;6.30;99.90
26326;DHT22;14032;52.510;7.342;2024-02-26T12:41:50;6.30;99.90
26326;DHT22;14032;52.510;7.342;2024-02-26T12:44:26;6.30;99.90
26326;DHT22;14032;52.510;7.342;2024-02-26T12:47:03;6.30;99.90
26326;DHT22;14032;52.510;7.342;2024-02-26T12:49:29;6.30;99.90
26326;DHT22;14032;52.510;7.342;2024-02-26T12:51:54;6.30;99.90
26326;DHT22;14032;52.510;7.342;2024-02-26T12:54:27;6.30;99.90
26326;DHT22;14032;52.510;7.342;2024-02-26T12:56:54;6.30;99.90
26326;DHT22;14032;52.510;7.342;2024-02-26T12:59:20;6.30;99.90
26326;DHT22;14032;52.510;7.342;2024-02-26T13:01:46;6.30;99.90
26326;DHT22;14032;52.510;7.342;2024-02-26T13:04:12;6.30;99.90
26326;DHT22;14032;52.510;7.342;2024-02-26T13:06:38;6.30;99.90
26326;DHT22;14032;52.510;7.342;2024-02-26T13:09:04;6.30;99.90
26326;DHT22;14032;52.510;7.342;2024-02-26T13:11:31;6.30;99.90
26326;DHT22;14032;52.510;7.342;2024-02-26T13:13:58;6.30;99.90
26326;DHT22;14032;52.510;7.342;2024-02-26T13:16:24;6.30;99.90
26326;DHT22;14032;52.510;7.342;2024-02-26T13:18:51;6.30;99.90
26326;DHT22;14032;52.510;7.342;2024-02-26T13:21:18;6.30;99.90
26326;DHT22;14032;52.510;7.342;2024-02-26T13:23:48;6.20;99.90
26326;DHT22;14032;52.510;7.342;2024-02-26T13:26:15;6.30;99.90
26326;DHT22;14032;52.510;7.342;2024-02-26T13:28:41;6.30;99.90
26326;DHT22;14032;52.510;7.342;2024-02-26T13:31:10;6.30;99.90
26326;DHT22;14032;52.510;7.342;2024-02-26T13:33:35;6.30;99.90
26326;DHT22;14032;52.510;7.342;2024-02-26T13:36:02;6.30;99.90
26326;DHT22;14032;52.510;7.342;2024-02-26T13:38:28;6.30;99.90
26326;DHT22;14032;52.510;7.342;2024-02-26T13:40:54;6.30;99.90
26326;DHT22;14032;52.510;7.342;2024-02-26T13:43:19;6.30;99.90
26326;DHT22;14032;52.510;7.342;2024-02-26T13:45:46;6.30;99.90
26326;DHT22;14032;52.510;7.342;2024-02-26T13:48:13;6.30;99.90
26326;DHT22;14032;52.510;7.342;2024-02-26T13:50:42;6.30;99.90
26326;DHT22;14032;52.510;7.342;2024-02-26T13:53:12;6.30;99.90
26326;DHT22;14032;52.510;7.342;2024-02-26T13:55:38;6.30;99.90
26326;DHT22;14032;52.510;7.342;2024-02-26T13:58:05;6.30;99.90
26326;DHT22;14032;52.510;7.342;2024-02-26T14:00:32;6.40;99.90
26326;DHT22;14032;52.510;7.342;2024-02-26T14:02:59;6.30;99.90
26326;DHT22;14032;52.510;7.342;2024-02-26T14:05:27;6.30;99.90
26326;DHT22;14032;52.510;7.342;2024-02-26T14:07:54;6.30;99.90
26326;DHT22;14032;52.510;7.342;2024-02-26T14:10:20;6.40;99.90
26326;DHT22;14032;52.510;7.342;2024-02-26T14:12:46;6.40;99.90
26326;DHT22;14032;52.510;7.342;2024-02-26T14:15:12;6.40;99.90
26326;DHT22;14032;52.510;7.342;2024-02-26T14:17:38;6.40;99.90
26326;DHT22;14032;52.510;7.342;2024-02-26T14:20:04;6.40;99.90
26326;DHT22;14032;52.510;7.342;2024-02-26T14:22:30;6.40;99.90
26326;DHT22;14032;52.510;7.342;2024-02-26T14:24:58;6.50;99.90
26326;DHT22;14032;52.510;7.342;2024-02-26T14:27:24;6.40;99.90
26326;DHT22;14032;52.510;7.342;2024-02-26T14:29:50;6.40;99.90
26326;DHT22;14032;52.510;7.342;2024-02-26T14:32:16;6.40;99.90
26326;DHT22;14032;52.510;7.342;2024-02-26T14:34:43;6.30;99.90
26326;DHT22;14032;52.510;7.342;2024-02-26T14:37:08;6.30;99.90
26326;DHT22;14032;52.510;7.342;2024-02-26T14:39:34;6.30;99.90
26326;DHT22;14032;52.510;7.342;2024-02-26T14:42:00;6.30;99.90
26326;DHT22;14032;52.510;7.342;2024-02-26T14:44:26;6.20;99.90
26326;DHT22;14032;52.510;7.342;2024-02-26T14:46:52;6.20;99.90
26326;DHT22;14032;52.510;7.342;2024-02-26T14:49:17;6.30;99.90
26326;DHT22;14032;52.510;7.342;2024-02-26T14:51:46;6.30;99.90
26326;DHT22;14032;52.510;7.342;2024-02-26T14:54:12;6.30;99.90
26326;DHT22;14032;52.510;7.342;2024-02-26T14:56:38;6.30;99.90
26326;DHT22;14032;52.510;7.342;2024-02-26T14:59:04;6.20;99.90
26326;DHT22;14032;52.510;7.342;2024-02-26T15:01:30;6.20;99.90
26326;DHT22;14032;52.510;7.342;2024-02-26T15:03:56;6.20;99.90
26326;DHT22;14032;52.510;7.342;2024-02-26T15:06:22;6.30;99.90
26326;DHT22;14032;52.510;7.342;2024-02-26T15:08:48;6.30;99.90
26326;DHT22;14032;52.510;7.342;2024-02-26T15:11:14;6.30;99.90
26326;DHT22;14032;52.510;7.342;2024-02-26T15:13:39;6.30;99.90
26326;DHT22;14032;52.510;7.342;2024-02-26T15:16:05;6.30;99.90
26326;DHT22;14032;52.510;7.342;2024-02-26T15:18:31;6.30;99.90
26326;DHT22;14032;52.510;7.342;2024-02-26T15:20:57;6.20;99.90
26326;DHT22;14032;52.510;7.342;2024-02-26T15:23:23;6.30;99.90
26326;DHT22;14032;52.510;7.342;2024-02-26T15:25:48;6.20;99.90
26326;DHT22;14032;52.510;7.342;2024-02-26T15:28:14;6.20;99.90
26326;DHT22;14032;52.510;7.342;2024-02-26T15:30:40;6.20;99.90
26326;DHT22;14032;52.510;7.342;2024-02-26T15:33:08;6.20;99.90
26326;DHT22;14032;52.510;7.342;2024-02-26T15:35:34;6.20;99.90
26326;DHT22;14032;52.510;7.342;2024-02-26T15:38:00;6.10;99.90
26326;DHT22;14032;52.510;7.342;2024-02-26T15:40:25;6.10;99.90
26326;DHT22;14032;52.510;7.342;2024-02-26T15:42:51;6.10;99.90
26326;DHT22;14032;52.510;7.342;2024-02-26T15:45:16;6.00;99.90
26326;DHT22;14032;52.510;7.342;2024-02-26T15:47:42;6.10;99.90